createdAt,value
2019-03-28T00:01:14.242Z,20.77
2019-03-28T00:03:50.037Z,19.32
2019-03-28T00:06:25.882Z,19.65
2019-03-28T00:09:02.022Z,18.15
2019-03-28T00:11:38.823Z,17.70
2019-03-28T00:14:14.619Z,18.52
2019-03-28T00:16:50.429Z,18.07
2019-03-28T00:19:26.264Z,18.27
2019-03-28T00:22:02.136Z,17.95
2019-03-28T00:24:45.629Z,17.92
2019-03-28T00:27:21.435Z,15.75
2019-03-28T00:29:57.184Z,16.10
2019-03-28T00:32:33.135Z,16.42
2019-03-28T00:35:08.951Z,16.55
2019-03-28T00:37:44.759Z,16.97
2019-03-28T00:40:20.532Z,16.23
2019-03-28T00:42:56.391Z,16.93
2019-03-28T00:45:32.182Z,14.98
2019-03-28T00:48:08.195Z,14.95
2019-03-28T00:50:44.274Z,15.15
2019-03-28T00:53:20.108Z,15.03
2019-03-28T00:55:55.981Z,14.20
2019-03-28T00:58:31.868Z,14.80
2019-03-28T01:01:08.709Z,14.38
2019-03-28T01:03:44.662Z,14.68
2019-03-28T01:06:20.572Z,15.83
2019-03-28T01:08:56.450Z,15.32
2019-03-28T01:11:32.259Z,13.75
2019-03-28T01:14:08.309Z,14.15
2019-03-28T01:16:44.240Z,14.23
2019-03-28T01:19:20.232Z,14.55
2019-03-28T01:21:56.042Z,14.43
2019-03-28T01:24:33.144Z,13.88
2019-03-28T01:27:08.956Z,13.90
2019-03-28T01:29:44.766Z,14.33
2019-03-28T01:32:20.633Z,13.60
2019-03-28T01:34:56.422Z,15.28
2019-03-28T01:37:32.225Z,14.63
2019-03-28T01:40:08.160Z,13.55
2019-03-28T01:42:43.945Z,15.13
2019-03-28T01:45:19.745Z,15.00
2019-03-28T01:47:55.561Z,15.98
2019-03-28T01:50:31.437Z,15.28
2019-03-28T01:53:07.469Z,15.45
2019-03-28T01:55:43.393Z,14.33
2019-03-28T01:58:19.435Z,14.47
2019-03-28T02:00:55.385Z,14.33
2019-03-28T02:03:32.145Z,15.53
2019-03-28T02:06:08.128Z,15.40
2019-03-28T02:08:43.998Z,14.43
2019-03-28T02:11:19.872Z,15.88
2019-03-28T02:13:55.877Z,15.25
2019-03-28T02:16:31.775Z,17.12
2019-03-28T02:19:07.794Z,17.02
2019-03-28T02:21:43.585Z,16.82
2019-03-28T02:24:19.503Z,16.70
2019-03-28T02:26:55.348Z,16.60
2019-03-28T02:29:31.128Z,15.85
2019-03-28T02:32:07.030Z,17.05
2019-03-28T02:34:42.805Z,16.67
2019-03-28T02:37:18.603Z,17.75
2019-03-28T02:39:54.382Z,17.10
2019-03-28T02:42:30.230Z,17.17
2019-03-28T02:45:06.095Z,17.42
2019-03-28T02:47:41.981Z,17.45
2019-03-28T02:50:17.784Z,16.45
2019-03-28T02:52:53.617Z,16.80
2019-03-28T02:55:29.803Z,16.10
2019-03-28T02:58:05.861Z,16.52
2019-03-28T03:00:41.664Z,15.58
2019-03-28T03:03:17.771Z,15.90
2019-03-28T03:05:54.891Z,15.70
2019-03-28T03:08:30.680Z,17.32
2019-03-28T03:11:10.294Z,16.57
2019-03-28T03:13:46.084Z,17.05
2019-03-28T03:16:22.701Z,16.70
2019-03-28T03:18:59.757Z,16.23
2019-03-28T03:21:36.099Z,17.70
2019-03-28T03:24:12.261Z,17.23
2019-03-28T03:26:48.051Z,18.77
2019-03-28T03:29:23.878Z,18.48
2019-03-28T03:31:59.744Z,19.15
2019-03-28T03:34:35.565Z,18.48
2019-03-28T03:37:11.597Z,20.23
2019-03-28T03:39:47.679Z,19.57
2019-03-28T03:42:23.744Z,19.82
2019-03-28T03:44:59.630Z,19.73
2019-03-28T03:47:35.611Z,19.92
2019-03-28T03:50:12.980Z,19.15
2019-03-28T03:52:48.896Z,21.37
2019-03-28T03:55:24.738Z,20.50
2019-03-28T03:58:14.240Z,20.02
2019-03-28T04:00:38.048Z,20.60
2019-03-28T04:03:13.823Z,20.82
2019-03-28T04:05:49.904Z,20.97
2019-03-28T04:08:26.999Z,20.40
2019-03-28T04:11:03.073Z,20.65
2019-03-28T04:13:40.429Z,21.10
2019-03-28T04:16:16.376Z,20.10
2019-03-28T04:18:52.211Z,20.52
2019-03-28T04:21:27.998Z,20.02
2019-03-28T04:24:04.669Z,19.85
2019-03-28T04:26:40.520Z,19.75
2019-03-28T04:29:16.291Z,20.60
2019-03-28T04:31:52.368Z,21.05
2019-03-28T04:34:28.184Z,19.92
2019-03-28T04:37:03.958Z,20.60
2019-03-28T04:39:39.792Z,21.42
2019-03-28T04:42:15.613Z,22.58
2019-03-28T04:44:52.591Z,22.85
2019-03-28T04:47:28.385Z,20.55
2019-03-28T04:50:05.479Z,22.27
2019-03-28T04:52:41.276Z,21.85
2019-03-28T04:55:17.065Z,22.25
2019-03-28T04:58:10.431Z,21.40
2019-03-28T05:00:46.469Z,20.32
2019-03-28T05:03:23.480Z,22.67
2019-03-28T05:05:59.330Z,22.85
2019-03-28T05:08:35.111Z,22.45
2019-03-28T05:11:10.875Z,22.48
2019-03-28T05:13:46.715Z,22.27
2019-03-28T05:16:23.340Z,23.62
2019-03-28T05:18:59.199Z,21.77
2019-03-28T05:21:35.072Z,23.57
2019-03-28T05:24:10.931Z,22.90
2019-03-28T05:26:46.927Z,23.42
2019-03-28T05:29:30.093Z,23.25
2019-03-28T05:32:05.892Z,23.20
2019-03-28T05:34:41.837Z,25.10
2019-03-28T05:37:17.829Z,22.95
2019-03-28T05:39:57.784Z,23.92
2019-03-28T05:42:33.570Z,22.70
2019-03-28T05:45:09.514Z,24.43
2019-03-28T05:47:45.316Z,24.45
2019-03-28T05:50:21.270Z,23.57
2019-03-28T05:52:57.043Z,24.70
2019-03-28T05:55:32.885Z,24.00
2019-03-28T05:58:09.672Z,23.38
2019-03-28T06:00:45.716Z,24.07
2019-03-28T06:03:21.800Z,24.23
2019-03-28T06:05:57.625Z,24.80
2019-03-28T06:08:40.662Z,24.12
2019-03-28T06:11:16.468Z,24.37
2019-03-28T06:13:52.261Z,25.02
2019-03-28T06:16:28.126Z,24.27
2019-03-28T06:19:03.959Z,23.22
2019-03-28T06:21:39.946Z,24.40
2019-03-28T06:24:15.676Z,23.18
2019-03-28T06:26:51.567Z,22.82
2019-03-28T06:29:28.442Z,24.00
2019-03-28T06:32:04.275Z,24.10
2019-03-28T06:34:40.147Z,24.95
2019-03-28T06:37:15.955Z,24.67
2019-03-28T06:39:51.764Z,24.12
2019-03-28T06:42:27.614Z,24.05
2019-03-28T06:45:04.023Z,25.50
2019-03-28T06:47:39.991Z,25.88
2019-03-28T06:50:15.831Z,26.68
2019-03-28T06:52:51.628Z,26.48
2019-03-28T06:55:27.374Z,25.25
2019-03-28T06:58:03.730Z,25.23
2019-03-28T07:00:39.516Z,26.07
2019-03-28T07:03:15.398Z,26.62
2019-03-28T07:05:51.170Z,25.95
2019-03-28T07:08:26.980Z,25.77
2019-03-28T07:11:02.963Z,27.07
2019-03-28T07:13:39.734Z,26.30
2019-03-28T07:16:15.498Z,25.37
2019-03-28T07:18:51.601Z,25.55
2019-03-28T07:21:28.496Z,25.17
2019-03-28T07:24:04.376Z,26.25
2019-03-28T07:26:40.145Z,26.97
2019-03-28T07:29:16.010Z,27.00
2019-03-28T07:31:51.833Z,25.97
2019-03-28T07:34:27.734Z,25.90
2019-03-28T07:37:03.511Z,25.20
2019-03-28T07:39:39.455Z,24.72
2019-03-28T07:42:15.574Z,26.15
2019-03-28T07:44:51.461Z,25.77
2019-03-28T07:47:30.247Z,25.68
2019-03-28T07:50:06.236Z,24.57
2019-03-28T07:52:42.112Z,23.95
2019-03-28T07:55:18.178Z,23.25
2019-03-28T07:57:54.288Z,23.45
2019-03-28T08:00:30.304Z,22.22
2019-03-28T08:03:06.105Z,23.30
2019-03-28T08:05:42.910Z,22.20
2019-03-28T08:08:18.812Z,20.60
2019-03-28T08:10:54.700Z,20.35
2019-03-28T08:13:30.595Z,20.15
2019-03-28T08:16:06.544Z,19.52
2019-03-28T08:18:42.424Z,18.25
2019-03-28T08:21:18.244Z,18.98
2019-03-28T08:23:54.046Z,17.82
2019-03-28T08:26:30.408Z,17.12
2019-03-28T08:29:06.253Z,16.97
2019-03-28T08:31:44.134Z,17.12
2019-03-28T08:34:19.980Z,17.30
2019-03-28T08:36:55.792Z,17.05
2019-03-28T08:39:31.574Z,18.15
2019-03-28T08:42:07.710Z,16.87
2019-03-28T08:44:43.620Z,15.18
2019-03-28T08:47:19.460Z,13.72
2019-03-28T08:49:58.561Z,13.28
2019-03-28T08:52:32.711Z,14.55
2019-03-28T08:55:10.141Z,14.00
2019-03-28T08:57:46.236Z,14.43
2019-03-28T09:00:32.241Z,14.93
2019-03-28T09:02:59.489Z,14.78
2019-03-28T09:05:35.309Z,12.50
2019-03-28T09:08:11.288Z,12.93
2019-03-28T09:10:47.080Z,13.68
2019-03-28T09:13:23.031Z,13.18
2019-03-28T09:15:58.801Z,14.78
2019-03-28T09:18:34.661Z,14.43
2019-03-28T09:21:10.699Z,14.83
2019-03-28T09:23:46.493Z,16.67
2019-03-28T09:26:22.277Z,16.30
2019-03-28T09:28:58.126Z,13.03
2019-03-28T09:31:33.924Z,14.85
2019-03-28T09:34:09.758Z,15.23
2019-03-28T09:36:45.583Z,14.15
2019-03-28T09:39:24.648Z,13.93
2019-03-28T09:41:58.860Z,15.18
2019-03-28T09:44:34.757Z,14.23
2019-03-28T09:47:13.350Z,14.68
2019-03-28T09:49:49.224Z,14.35
2019-03-28T09:52:24.980Z,16.05
2019-03-28T09:55:00.853Z,13.45
2019-03-28T09:57:36.684Z,14.43
2019-03-28T10:00:13.078Z,11.73
2019-03-28T10:02:48.992Z,14.35
2019-03-28T10:05:24.784Z,12.90
2019-03-28T10:08:00.677Z,13.53
2019-03-28T10:10:36.524Z,10.63
2019-03-28T10:13:12.309Z,9.53
2019-03-28T10:15:48.227Z,11.05
2019-03-28T10:18:24.006Z,11.03
2019-03-28T10:20:59.880Z,9.73
2019-03-28T10:23:35.680Z,9.95
2019-03-28T10:26:11.528Z,8.35
2019-03-28T10:28:47.458Z,8.40
2019-03-28T10:31:23.357Z,8.35
2019-03-28T10:33:59.489Z,7.55
2019-03-28T10:36:35.341Z,8.13
2019-03-28T10:39:11.311Z,8.30
2019-03-28T10:41:47.135Z,7.75
2019-03-28T10:44:22.929Z,8.35
2019-03-28T10:46:58.769Z,8.13
2019-03-28T10:49:34.632Z,7.62
2019-03-28T10:52:12.059Z,7.90
2019-03-28T10:54:48.033Z,7.92
2019-03-28T10:57:29.794Z,7.85
2019-03-28T11:00:01.312Z,8.40
2019-03-28T11:02:38.786Z,7.58
2019-03-28T11:05:14.959Z,8.40
2019-03-28T11:07:52.389Z,7.95
2019-03-28T11:10:30.557Z,7.92
2019-03-28T11:13:09.030Z,9.18
2019-03-28T11:15:43.272Z,8.65
2019-03-28T11:18:19.184Z,8.08
2019-03-28T11:20:55.086Z,7.75
2019-03-28T11:23:30.940Z,8.30
2019-03-28T11:26:06.806Z,8.15
2019-03-28T11:28:42.610Z,11.95
2019-03-28T11:31:18.439Z,11.68
2019-03-28T11:33:54.207Z,9.98
2019-03-28T11:36:30.093Z,10.43
2019-03-28T11:39:07.710Z,9.98
2019-03-28T11:41:43.606Z,10.50
2019-03-28T11:44:19.583Z,11.05
2019-03-28T11:46:55.732Z,10.18
2019-03-28T11:49:31.614Z,9.25
2019-03-28T11:52:07.554Z,9.80
2019-03-28T11:54:44.390Z,10.32
2019-03-28T11:57:20.277Z,10.35
2019-03-28T11:59:57.997Z,10.93
2019-03-28T12:02:33.590Z,12.25
2019-03-28T12:05:09.525Z,12.35
2019-03-28T12:07:45.339Z,12.73
2019-03-28T12:10:21.181Z,12.98
2019-03-28T12:12:57.027Z,12.63
2019-03-28T12:15:33.138Z,12.90
2019-03-28T12:18:09.053Z,11.85
2019-03-28T12:20:45.692Z,11.53
2019-03-28T12:23:22.386Z,12.70
2019-03-28T12:25:59.548Z,12.53
2019-03-28T12:28:35.394Z,13.03
2019-03-28T12:31:11.483Z,12.88
2019-03-28T12:33:47.315Z,13.45
2019-03-28T12:36:23.361Z,12.05
2019-03-28T12:38:59.289Z,12.80
2019-03-28T12:41:36.211Z,12.88
2019-03-28T12:44:11.991Z,11.95
2019-03-28T12:46:47.800Z,13.05
2019-03-28T12:49:24.564Z,11.88
2019-03-28T12:52:00.370Z,13.88
2019-03-28T12:54:36.172Z,12.98
2019-03-28T12:57:14.407Z,12.13
2019-03-28T12:59:49.488Z,13.35
2019-03-28T13:02:31.448Z,13.30
2019-03-28T13:05:02.876Z,13.78
2019-03-28T13:07:38.900Z,12.98
2019-03-28T13:10:14.820Z,12.95
2019-03-28T13:12:50.632Z,13.90
2019-03-28T13:15:26.452Z,13.00
2019-03-28T13:18:02.322Z,15.30
2019-03-28T13:20:38.112Z,14.00
2019-03-28T13:23:13.918Z,13.90
2019-03-28T13:25:49.691Z,13.83
2019-03-28T13:28:25.771Z,13.35
2019-03-28T13:31:01.616Z,13.83
2019-03-28T13:33:37.505Z,13.22
2019-03-28T13:36:13.502Z,12.40
2019-03-28T13:38:49.321Z,12.82
2019-03-28T13:41:25.047Z,13.08
2019-03-28T13:44:01.679Z,13.55
2019-03-28T13:46:37.506Z,13.20
2019-03-28T13:49:13.246Z,13.30
2019-03-28T13:51:48.939Z,13.48
2019-03-28T13:54:24.696Z,14.07
2019-03-28T13:57:00.694Z,13.83
2019-03-28T13:59:37.686Z,13.50
2019-03-28T14:02:13.405Z,14.03
2019-03-28T14:04:49.291Z,13.95
2019-03-28T14:07:25.215Z,14.13
2019-03-28T14:10:01.349Z,14.78
2019-03-28T14:12:37.105Z,14.07
2019-03-28T14:15:12.874Z,13.48
2019-03-28T14:17:48.588Z,12.80
2019-03-28T14:20:24.514Z,13.35
2019-03-28T14:23:00.242Z,12.73
2019-03-28T14:25:35.995Z,13.72
2019-03-28T14:28:11.713Z,15.28
2019-03-28T14:30:47.716Z,14.45
2019-03-28T14:33:23.443Z,15.25
2019-03-28T14:35:59.138Z,14.75
2019-03-28T14:38:37.348Z,13.48
2019-03-28T14:41:12.248Z,14.35
2019-03-28T14:43:48.121Z,14.85
2019-03-28T14:46:23.989Z,15.50
2019-03-28T14:49:00.050Z,13.65
2019-03-28T14:51:35.930Z,14.03
2019-03-28T14:54:11.595Z,13.70
2019-03-28T14:56:47.359Z,13.53
2019-03-28T14:59:32.497Z,13.28
2019-03-28T15:02:00.538Z,13.30
2019-03-28T15:04:36.275Z,14.15
2019-03-28T15:07:12.968Z,14.47
2019-03-28T15:09:48.708Z,14.68
2019-03-28T15:12:24.616Z,14.45
2019-03-28T15:15:00.527Z,14.65
2019-03-28T15:17:36.364Z,14.73
2019-03-28T15:20:12.019Z,13.75
2019-03-28T15:22:47.830Z,12.85
2019-03-28T15:25:23.509Z,12.75
2019-03-28T15:27:59.269Z,13.28
2019-03-28T15:30:34.910Z,13.25
2019-03-28T15:33:10.721Z,12.73
2019-03-28T15:35:46.362Z,13.68
2019-03-28T15:38:22.042Z,13.03
2019-03-28T15:40:57.728Z,13.80
2019-03-28T15:43:33.471Z,14.03
2019-03-28T15:46:10.409Z,13.58
2019-03-28T15:48:46.424Z,13.65
2019-03-28T15:51:23.078Z,12.55
2019-03-28T15:53:59.056Z,13.53
2019-03-28T15:56:34.799Z,12.33
2019-03-28T15:59:10.563Z,12.98
2019-03-28T16:01:46.323Z,14.07
2019-03-28T16:04:24.669Z,13.75
2019-03-28T16:06:59.532Z,13.58
2019-03-28T16:09:35.667Z,14.03
2019-03-28T16:12:11.412Z,14.85
2019-03-28T16:14:47.163Z,14.87
2019-03-28T16:17:22.932Z,14.15
2019-03-28T16:19:58.701Z,14.93
2019-03-28T16:22:34.454Z,15.30
2019-03-28T16:25:10.279Z,14.85
2019-03-28T16:27:46.015Z,14.75
2019-03-28T16:30:33.635Z,15.50
2019-03-28T16:33:10.556Z,14.13
2019-03-28T16:35:46.467Z,15.13
2019-03-28T16:38:22.207Z,15.15
2019-03-28T16:40:58.118Z,13.58
2019-03-28T16:43:34.239Z,14.23
2019-03-28T16:46:10.191Z,13.28
2019-03-28T16:48:46.003Z,13.40
2019-03-28T16:51:21.855Z,13.93
2019-03-28T16:53:57.600Z,13.55
2019-03-28T16:56:33.493Z,13.22
2019-03-28T16:59:09.228Z,13.35
2019-03-28T17:01:45.434Z,13.03
2019-03-28T17:04:22.199Z,13.05
2019-03-28T17:06:59.636Z,12.47
2019-03-28T17:09:37.592Z,13.13
2019-03-28T17:12:13.352Z,13.15
2019-03-28T17:14:49.168Z,12.88
2019-03-28T17:17:25.124Z,12.43
2019-03-28T17:20:00.841Z,12.20
2019-03-28T17:22:36.562Z,12.28
2019-03-28T17:25:12.296Z,13.03
2019-03-28T17:27:49.040Z,12.63
2019-03-28T17:30:24.794Z,12.30
2019-03-28T17:33:00.775Z,12.98
2019-03-28T17:35:36.722Z,11.20
2019-03-28T17:38:12.473Z,11.35
2019-03-28T17:40:48.178Z,12.28
2019-03-28T17:43:23.979Z,13.20
2019-03-28T17:45:59.923Z,12.40
2019-03-28T17:48:36.846Z,11.53
2019-03-28T17:51:12.561Z,12.07
2019-03-28T17:53:48.353Z,11.68
2019-03-28T17:56:24.424Z,12.68
2019-03-28T17:59:00.459Z,12.78
2019-03-28T18:01:37.870Z,12.78
2019-03-28T18:04:22.767Z,11.45
2019-03-28T18:06:51.229Z,12.13
2019-03-28T18:09:27.243Z,12.80
2019-03-28T18:12:04.001Z,12.28
2019-03-28T18:14:41.554Z,12.35
2019-03-28T18:17:22.481Z,11.40
2019-03-28T18:19:58.367Z,12.33
2019-03-28T18:22:36.396Z,11.78
2019-03-28T18:25:13.708Z,11.78
2019-03-28T18:27:49.467Z,11.93
2019-03-28T18:30:25.195Z,12.47
2019-03-28T18:33:03.854Z,12.47
2019-03-28T18:35:38.399Z,13.38
2019-03-28T18:38:14.055Z,11.30
2019-03-28T18:40:49.946Z,11.30
2019-03-28T18:43:27.816Z,12.18
2019-03-28T18:46:03.609Z,12.20
2019-03-28T18:48:39.293Z,12.33
2019-03-28T18:51:15.014Z,12.45
2019-03-28T18:53:50.838Z,13.10
2019-03-28T18:56:26.569Z,12.23
2019-03-28T18:59:02.318Z,13.00
2019-03-28T19:01:38.000Z,13.03
2019-03-28T19:04:14.060Z,12.33
2019-03-28T19:06:50.116Z,12.07
2019-03-28T19:09:25.747Z,12.78
2019-03-28T19:12:01.542Z,12.82
2019-03-28T19:14:37.620Z,13.85
2019-03-28T19:17:13.415Z,12.18
2019-03-28T19:19:49.179Z,13.38
2019-03-28T19:22:24.961Z,13.38
2019-03-28T19:25:00.695Z,13.22
2019-03-28T19:27:38.151Z,13.70
2019-03-28T19:30:14.085Z,13.62
2019-03-28T19:32:49.911Z,13.40
2019-03-28T19:35:32.906Z,12.50
2019-03-28T19:38:03.212Z,14.68
2019-03-28T19:40:39.001Z,13.78
2019-03-28T19:43:20.927Z,12.45
2019-03-28T19:45:52.315Z,13.95
2019-03-28T19:48:31.146Z,13.38
2019-03-28T19:51:07.853Z,13.78
2019-03-28T19:53:44.001Z,13.58
2019-03-28T19:56:20.863Z,13.00
2019-03-28T19:58:57.493Z,13.45
2019-03-28T20:01:33.243Z,13.68
2019-03-28T20:04:08.919Z,13.95
2019-03-28T20:06:44.650Z,15.30
2019-03-28T20:09:20.416Z,14.80
2019-03-28T20:11:59.302Z,15.40
2019-03-28T20:14:33.621Z,14.25
2019-03-28T20:17:09.381Z,15.38
2019-03-28T20:19:45.258Z,15.18
2019-03-28T20:22:21.002Z,15.70
2019-03-28T20:24:58.287Z,14.53
2019-03-28T20:27:34.358Z,15.13
2019-03-28T20:30:10.185Z,15.30
2019-03-28T20:32:45.949Z,16.50
2019-03-28T20:35:22.181Z,15.75
2019-03-28T20:37:57.855Z,17.00
2019-03-28T20:40:33.721Z,17.07
2019-03-28T20:43:09.693Z,17.25
2019-03-28T20:45:46.403Z,17.82
2019-03-28T20:48:22.257Z,17.80
2019-03-28T20:50:58.080Z,17.92
2019-03-28T20:53:33.779Z,19.12
2019-03-28T20:56:09.512Z,18.85
2019-03-28T20:58:45.263Z,18.92
2019-03-28T21:01:21.002Z,20.35
2019-03-28T21:03:56.607Z,19.92
2019-03-28T21:06:32.369Z,22.10
2019-03-28T21:09:08.486Z,19.35
2019-03-28T21:11:44.510Z,20.72
2019-03-28T21:14:20.213Z,20.68
2019-03-28T21:16:58.122Z,21.40
2019-03-28T21:19:33.458Z,22.82
2019-03-28T21:22:09.086Z,23.42
2019-03-28T21:24:44.882Z,27.05
2019-03-28T21:27:20.961Z,27.22
2019-03-28T21:29:56.742Z,28.38
2019-03-28T21:32:32.586Z,28.57
2019-03-28T21:35:08.313Z,29.30
2019-03-28T21:37:44.306Z,30.37
2019-03-28T21:40:20.100Z,30.82
2019-03-28T21:42:55.835Z,30.15
2019-03-28T21:45:31.638Z,30.05
2019-03-28T21:48:07.373Z,31.15
2019-03-28T21:50:43.157Z,31.82
2019-03-28T21:53:20.089Z,31.48
2019-03-28T21:55:57.495Z,29.48
2019-03-28T21:58:33.647Z,29.20
2019-03-28T22:01:09.311Z,28.52
2019-03-28T22:03:45.759Z,30.82
2019-03-28T22:06:21.501Z,31.20
2019-03-28T22:08:57.319Z,29.90
2019-03-28T22:11:33.038Z,30.45
2019-03-28T22:14:08.777Z,29.05
2019-03-28T22:16:44.667Z,31.12
2019-03-28T22:19:20.811Z,31.57
2019-03-28T22:21:57.054Z,30.57
2019-03-28T22:24:32.855Z,29.52
2019-03-28T22:27:08.727Z,30.65
2019-03-28T22:29:44.882Z,29.50
2019-03-28T22:32:20.530Z,29.37
2019-03-28T22:34:56.461Z,28.15
2019-03-28T22:37:32.264Z,29.07
2019-03-28T22:40:11.475Z,30.12
2019-03-28T22:42:45.500Z,30.95
2019-03-28T22:45:23.137Z,28.15
2019-03-28T22:48:10.040Z,27.87
2019-03-28T22:50:36.366Z,28.95
2019-03-28T22:53:12.094Z,31.85
2019-03-28T22:55:47.859Z,31.33
2019-03-28T22:58:23.894Z,31.77
2019-03-28T23:00:59.878Z,31.27
2019-03-28T23:03:35.706Z,32.30
2019-03-28T23:06:11.524Z,34.75
2019-03-28T23:08:47.316Z,36.90
2019-03-28T23:11:23.083Z,35.92
2019-03-28T23:13:58.738Z,36.48
2019-03-28T23:16:34.633Z,38.25
2019-03-28T23:19:11.985Z,36.25
2019-03-28T23:21:47.960Z,37.03
2019-03-28T23:24:23.731Z,36.38
2019-03-28T23:27:00.856Z,37.15
2019-03-28T23:29:36.856Z,39.08
2019-03-28T23:32:12.970Z,37.42
2019-03-28T23:34:49.083Z,36.75
2019-03-28T23:37:26.127Z,37.05
2019-03-28T23:40:03.153Z,37.93
2019-03-28T23:42:39.507Z,39.23
2019-03-28T23:45:15.232Z,35.83
2019-03-28T23:47:51.005Z,38.92
2019-03-28T23:50:26.734Z,40.05
2019-03-28T23:53:02.454Z,38.30
2019-03-28T23:55:38.191Z,38.13
2019-03-28T23:58:13.840Z,39.67
